Time;durP1;ratioP1;P1;durP2;ratioP2;P2;SDS_P1;SDS_P2;PMS_P1;PMS_P2;Temp;Humidity;BMP_temperature;BMP_pressure;BME280_temperature;BME280_humidity;BME280_pressure;Samples;Min_cycle;Max_cycle;Signal;HPM_P1;HPM_P2
2022/07/27 00:01:04;;;;;;;5.27;1.40;;;13.10;99.90;;;;;;4994409;28;20223;-83
2022/07/27 00:03:31;;;;;;;5.83;1.50;;;13.10;99.90;;;;;;4998004;28;20232;-85
2022/07/27 00:05:57;;;;;;;5.77;1.40;;;13.00;99.90;;;;;;4986867;28;20315;-85
2022/07/27 00:08:24;;;;;;;5.17;1.50;;;13.00;99.90;;;;;;4987292;28;20645;-85
2022/07/27 00:10:51;;;;;;;5.47;1.40;;;12.90;99.90;;;;;;4986923;28;20846;-85
2022/07/27 00:13:18;;;;;;;7.20;1.73;;;12.90;99.90;;;;;;4990190;28;20345;-83
2022/07/27 00:15:45;;;;;;;6.97;1.47;;;12.90;99.90;;;;;;4992956;28;20223;-84
2022/07/27 00:18:13;;;;;;;6.47;1.60;;;12.90;99.90;;;;;;4993335;28;20228;-85
2022/07/27 00:20:40;;;;;;;4.47;1.30;;;12.90;99.90;;;;;;4989911;28;20239;-85
2022/07/27 00:23:07;;;;;;;3.07;1.43;;;12.90;99.90;;;;;;4990963;28;20234;-84
2022/07/27 00:25:34;;;;;;;3.70;1.23;;;13.00;99.90;;;;;;4993547;28;20216;-85
2022/07/27 00:28:01;;;;;;;4.87;1.30;;;13.00;99.90;;;;;;4985328;28;20226;-85
2022/07/27 00:30:28;;;;;;;8.33;1.53;;;13.00;99.90;;;;;;4991308;28;20229;-85
2022/07/27 00:32:55;;;;;;;6.23;1.40;;;13.00;99.90;;;;;;4984672;28;20266;-84
2022/07/27 00:35:24;;;;;;;6.50;1.63;;;13.10;99.90;;;;;;4993621;28;20237;-84
2022/07/27 00:37:51;;;;;;;6.27;1.20;;;13.10;99.90;;;;;;5001722;28;20241;-84
2022/07/27 00:40:17;;;;;;;6.10;1.80;;;13.20;99.90;;;;;;5001034;28;20284;-84
2022/07/27 00:42:44;;;;;;;4.90;1.73;;;13.20;99.90;;;;;;4996366;28;20240;-84
2022/07/27 00:45:12;;;;;;;5.37;1.43;;;13.20;99.90;;;;;;4991566;28;20225;-86
2022/07/27 00:47:39;;;;;;;7.57;1.90;;;13.30;99.90;;;;;;4995162;28;20222;-84
2022/07/27 00:50:07;;;;;;;5.00;1.33;;;13.30;99.90;;;;;;4998570;28;21031;-84
2022/07/27 00:52:36;;;;;;;8.33;1.60;;;13.30;99.90;;;;;;4997221;28;20262;-84
2022/07/27 00:55:03;;;;;;;6.80;1.67;;;13.30;99.90;;;;;;4995347;28;20225;-83
2022/07/27 00:57:30;;;;;;;5.97;1.20;;;13.30;99.90;;;;;;4994013;28;20221;-84
2022/07/27 00:59:56;;;;;;;5.70;1.60;;;13.30;99.90;;;;;;4998412;28;20600;-84
2022/07/27 01:02:25;;;;;;;6.70;1.47;;;13.40;99.90;;;;;;4994489;28;20226;-84
2022/07/27 01:04:51;;;;;;;6.40;1.73;;;13.40;99.90;;;;;;5001988;28;20227;-84
2022/07/27 01:07:18;;;;;;;8.67;1.43;;;13.40;99.90;;;;;;4996537;28;20291;-82
2022/07/27 01:09:59;;;;;;;5.37;1.50;;;13.40;99.90;;;;;;4998553;28;20867;-83
2022/07/27 01:12:27;;;;;;;5.43;1.20;;;13.40;99.90;;;;;;4999496;28;20316;-83
2022/07/27 01:14:56;;;;;;;4.10;1.30;;;13.50;99.90;;;;;;4997074;28;20235;-84
2022/07/27 01:17:23;;;;;;;2.20;1.20;;;13.40;99.90;;;;;;4994446;28;20323;-83
2022/07/27 01:19:51;;;;;;;4.43;1.50;;;13.40;99.90;;;;;;5001707;28;20309;-84
2022/07/27 01:22:19;;;;;;;4.73;1.23;;;13.40;99.90;;;;;;5002650;28;20314;-84
2022/07/27 01:24:46;;;;;;;4.53;1.10;;;13.40;99.90;;;;;;5002321;28;20711;-84
2022/07/27 01:27:12;;;;;;;5.30;1.20;;;13.50;99.90;;;;;;5000112;28;20221;-84
2022/07/27 01:29:40;;;;;;;4.63;1.20;;;13.50;99.90;;;;;;4997515;28;20212;-83
2022/07/27 01:32:07;;;;;;;3.57;1.70;;;13.50;99.90;;;;;;4992911;28;20229;-83
2022/07/27 01:34:34;;;;;;;4.50;1.43;;;13.50;99.90;;;;;;5003586;28;20240;-83
2022/07/27 01:37:01;;;;;;;5.37;1.37;;;13.50;99.90;;;;;;4998109;28;20252;-84
2022/07/27 01:39:30;;;;;;;5.23;1.57;;;13.50;99.90;;;;;;4994716;28;20231;-83
2022/07/27 01:41:57;;;;;;;6.23;1.40;;;13.50;99.90;;;;;;4994180;28;20234;-83
2022/07/27 01:44:24;;;;;;;4.03;1.10;;;13.50;99.90;;;;;;4991312;28;20848;-84
2022/07/27 01:46:50;;;;;;;4.00;1.20;;;13.60;99.90;;;;;;4988178;28;20237;-85
2022/07/27 01:49:18;;;;;;;4.07;1.37;;;13.60;99.90;;;;;;4989972;28;20219;-83
2022/07/27 01:51:44;;;;;;;4.87;1.83;;;13.50;99.90;;;;;;4994217;28;20237;-83
2022/07/27 01:54:12;;;;;;;10.03;1.87;;;13.60;99.90;;;;;;4993322;28;20717;-83
2022/07/27 01:56:40;;;;;;;7.90;1.73;;;13.60;99.90;;;;;;4992351;28;20223;-84
2022/07/27 01:59:07;;;;;;;5.30;1.47;;;13.60;99.90;;;;;;4994112;28;20239;-83
2022/07/27 02:01:34;;;;;;;5.47;1.43;;;13.60;99.90;;;;;;4992586;28;20228;-84
2022/07/27 02:04:00;;;;;;;7.30;1.50;;;13.60;99.90;;;;;;4993857;28;20236;-83
2022/07/27 02:06:27;;;;;;;6.67;1.40;;;13.60;99.90;;;;;;4992489;28;20234;-84
2022/07/27 02:08:54;;;;;;;5.60;1.87;;;13.60;99.90;;;;;;4993732;28;20230;-83
2022/07/27 02:14:06;;;;;;;5.17;1.30;;;13.60;99.90;;;;;;4995046;28;20229;-85
2022/07/27 02:16:32;;;;;;;5.53;1.43;;;13.60;99.90;;;;;;4994398;28;20231;-85
2022/07/27 02:18:59;;;;;;;4.73;1.30;;;13.50;99.90;;;;;;4992785;28;20233;-84
2022/07/27 02:21:26;;;;;;;4.73;1.50;;;13.60;99.90;;;;;;4990389;28;21160;-85
2022/07/27 02:23:53;;;;;;;4.00;1.30;;;13.60;99.90;;;;;;4991812;28;20254;-83
2022/07/27 02:26:20;;;;;;;4.83;1.17;;;13.60;99.90;;;;;;4989404;28;20239;-83
2022/07/27 02:28:46;;;;;;;4.27;1.40;;;13.50;99.90;;;;;;4990702;28;20231;-83
2022/07/27 02:31:14;;;;;;;5.73;1.73;;;13.60;99.90;;;;;;4994712;28;20240;-83
2022/07/27 02:33:41;;;;;;;5.73;2.07;;;13.50;99.90;;;;;;5000540;28;20235;-83
2022/07/27 02:36:08;;;;;;;5.47;1.47;;;13.40;99.90;;;;;;5004315;28;20224;-83
2022/07/27 02:38:35;;;;;;;4.30;1.37;;;13.40;99.90;;;;;;5007585;28;20220;-82
2022/07/27 02:41:01;;;;;;;6.50;1.40;;;13.40;99.90;;;;;;4989834;28;20866;-85
2022/07/27 02:43:28;;;;;;;5.30;1.50;;;13.30;99.90;;;;;;4990792;28;20231;-85
2022/07/27 02:45:55;;;;;;;5.37;1.30;;;13.30;99.90;;;;;;4999061;28;20227;-83
2022/07/27 02:48:23;;;;;;;5.20;1.37;;;13.30;99.90;;;;;;4997538;28;20228;-84
2022/07/27 02:50:50;;;;;;;7.90;1.43;;;13.30;99.90;;;;;;5001029;28;20219;-84
2022/07/27 02:53:16;;;;;;;6.20;1.33;;;13.30;99.90;;;;;;4993180;28;20258;-84
2022/07/27 02:55:43;;;;;;;1.87;0.90;;;13.30;99.90;;;;;;5008417;28;20228;-84
2022/07/27 02:58:10;;;;;;;3.93;1.30;;;13.40;99.90;;;;;;4994742;28;20242;-84
2022/07/27 03:00:36;;;;;;;4.30;1.13;;;13.40;99.90;;;;;;4999571;28;20231;-83
2022/07/27 03:03:03;;;;;;;3.23;1.03;;;13.40;99.90;;;;;;4992504;28;20235;-84
2022/07/27 03:05:32;;;;;;;5.13;0.97;;;13.40;99.90;;;;;;5011786;28;20224;-84
2022/07/27 03:07:59;;;;;;;6.20;1.57;;;13.40;99.90;;;;;;5000178;28;20224;-83
2022/07/27 03:10:25;;;;;;;5.43;1.37;;;13.50;99.90;;;;;;4997630;28;20517;-84
2022/07/27 03:12:52;;;;;;;8.00;1.73;;;13.40;99.90;;;;;;4996465;28;20246;-83
2022/07/27 03:15:19;;;;;;;5.50;1.20;;;13.40;99.90;;;;;;4993618;28;20219;-83
2022/07/27 03:17:45;;;;;;;3.60;1.30;;;13.40;99.90;;;;;;5000449;28;20232;-84
2022/07/27 03:20:12;;;;;;;5.97;1.37;;;13.40;99.90;;;;;;4994648;28;20710;-83
2022/07/27 03:22:41;;;;;;;6.17;1.30;;;13.40;99.90;;;;;;4992498;28;20259;-83
2022/07/27 03:25:09;;;;;;;5.20;1.30;;;13.40;99.90;;;;;;4992504;28;20346;-83
2022/07/27 03:27:36;;;;;;;6.80;1.40;;;13.40;99.90;;;;;;4996529;28;20249;-84
2022/07/27 03:30:03;;;;;;;5.73;1.20;;;13.40;99.90;;;;;;4998580;28;20228;-82
2022/07/27 03:32:30;;;;;;;5.17;1.47;;;13.40;99.90;;;;;;4996221;28;20242;-82
2022/07/27 03:34:56;;;;;;;4.87;1.27;;;13.40;99.90;;;;;;4994727;28;20224;-83
2022/07/27 03:37:23;;;;;;;6.70;1.30;;;13.40;99.90;;;;;;4998264;28;20811;-82
2022/07/27 03:39:51;;;;;;;6.10;1.40;;;13.50;99.90;;;;;;5007292;28;20232;-82
2022/07/27 03:42:18;;;;;;;4.03;1.30;;;13.50;99.90;;;;;;4987784;28;20320;-83
2022/07/27 03:44:44;;;;;;;6.13;1.40;;;13.50;99.90;;;;;;5000580;28;20228;-83
2022/07/27 03:47:11;;;;;;;6.77;1.50;;;13.50;99.90;;;;;;5001331;28;20496;-83
2022/07/27 03:49:38;;;;;;;4.80;1.30;;;13.50;99.90;;;;;;5001302;28;20858;-83
2022/07/27 03:52:05;;;;;;;5.67;1.30;;;13.50;99.90;;;;;;4997923;28;20224;-82
2022/07/27 03:54:32;;;;;;;4.17;1.10;;;13.40;99.90;;;;;;4993377;28;20327;-83
2022/07/27 03:57:01;;;;;;;5.50;1.20;;;13.50;99.90;;;;;;4996859;28;20225;-82
2022/07/27 03:59:27;;;;;;;6.67;1.63;;;13.40;99.90;;;;;;4997833;28;20226;-82
2022/07/27 04:01:54;;;;;;;5.73;1.53;;;13.40;99.90;;;;;;4990207;28;20454;-82
2022/07/27 04:04:21;;;;;;;4.37;1.30;;;13.40;99.90;;;;;;4993530;28;20217;-83
2022/07/27 04:06:47;;;;;;;5.70;1.80;;;13.30;99.90;;;;;;4994878;28;20229;-83
2022/07/27 04:09:15;;;;;;;7.07;1.43;;;13.30;99.90;;;;;;4993069;28;20313;-83
2022/07/27 04:11:43;;;;;;;5.97;1.60;;;13.30;99.90;;;;;;4999644;28;20260;-85
2022/07/27 04:14:11;;;;;;;4.33;1.20;;;13.30;99.90;;;;;;4996659;28;20755;-88
2022/07/27 04:16:38;;;;;;;5.00;1.47;;;13.30;99.90;;;;;;4991456;28;20225;-86
2022/07/27 04:19:05;;;;;;;6.87;1.63;;;13.20;99.90;;;;;;4989404;28;20231;-85
2022/07/27 04:21:33;;;;;;;4.57;1.50;;;13.20;99.90;;;;;;4997054;28;20257;-81
2022/07/27 04:24:00;;;;;;;5.90;1.73;;;13.20;99.90;;;;;;4996878;28;20232;-82
2022/07/27 04:26:27;;;;;;;3.67;1.63;;;13.20;99.90;;;;;;5004795;28;20236;-82
2022/07/27 04:28:53;;;;;;;4.27;1.50;;;13.20;99.90;;;;;;4999356;28;20705;-83
2022/07/27 04:31:22;;;;;;;8.47;1.60;;;13.10;99.90;;;;;;4996349;28;20273;-82
2022/07/27 04:33:48;;;;;;;8.00;1.67;;;13.20;99.90;;;;;;5000742;28;20228;-81
2022/07/27 04:36:15;;;;;;;5.07;1.70;;;13.10;99.90;;;;;;5001889;28;20245;-83
2022/07/27 04:38:42;;;;;;;5.50;1.67;;;13.10;99.90;;;;;;5002870;28;20320;-84
2022/07/27 04:41:08;;;;;;;5.57;1.50;;;13.20;99.90;;;;;;4999502;28;20603;-83
2022/07/27 04:43:35;;;;;;;5.07;1.43;;;13.20;99.90;;;;;;4988933;28;20597;-85
2022/07/27 04:46:03;;;;;;;5.67;1.80;;;13.20;99.90;;;;;;4989771;28;20322;-85
2022/07/27 04:48:31;;;;;;;5.07;1.60;;;13.20;99.90;;;;;;4993878;28;20695;-84
2022/07/27 04:50:58;;;;;;;3.23;1.30;;;13.30;99.90;;;;;;4992760;28;20741;-85
2022/07/27 04:53:25;;;;;;;7.60;1.43;;;13.30;99.90;;;;;;5005501;28;20247;-85
2022/07/27 04:55:51;;;;;;;6.60;1.50;;;13.30;99.90;;;;;;5001581;28;20224;-84
2022/07/27 04:58:18;;;;;;;5.13;1.27;;;13.40;99.90;;;;;;4999466;28;20775;-84
2022/07/27 05:00:45;;;;;;;5.50;1.07;;;13.40;99.90;;;;;;4991253;28;20821;-84
2022/07/27 05:03:12;;;;;;;5.20;1.47;;;13.50;99.90;;;;;;4995075;28;20215;-85
2022/07/27 05:05:40;;;;;;;9.27;2.07;;;13.50;99.90;;;;;;4996672;28;20273;-85
2022/07/27 05:08:07;;;;;;;3.00;1.70;;;13.60;99.90;;;;;;4997161;28;20861;-87
2022/07/27 05:10:33;;;;;;;7.40;2.00;;;13.60;99.90;;;;;;4990967;28;20230;-86
2022/07/27 05:13:00;;;;;;;7.03;1.33;;;13.60;99.90;;;;;;4996717;28;20863;-86
2022/07/27 05:15:27;;;;;;;5.37;1.83;;;13.70;99.90;;;;;;4992742;28;20240;-84
2022/07/27 05:17:53;;;;;;;5.50;1.40;;;13.80;99.90;;;;;;4996749;28;20591;-85
2022/07/27 05:20:20;;;;;;;5.37;1.50;;;13.80;99.90;;;;;;4996935;28;20221;-88
2022/07/27 05:22:48;;;;;;;6.13;1.70;;;14.00;99.90;;;;;;5004831;28;20233;-83
2022/07/27 05:25:15;;;;;;;4.63;1.50;;;14.00;99.90;;;;;;4999438;28;20255;-83
2022/07/27 05:27:42;;;;;;;4.73;1.23;;;14.00;99.90;;;;;;5003094;28;20243;-83
2022/07/27 05:30:10;;;;;;;6.20;1.40;;;14.10;99.90;;;;;;5003757;28;20229;-85
2022/07/27 05:32:36;;;;;;;5.07;1.50;;;14.10;99.90;;;;;;5005903;28;20758;-82
2022/07/27 05:35:04;;;;;;;3.70;1.50;;;14.10;99.90;;;;;;5002065;28;21205;-84
2022/07/27 05:37:30;;;;;;;4.90;1.30;;;14.00;99.90;;;;;;5006995;28;20724;-82
2022/07/27 05:39:58;;;;;;;5.63;1.53;;;14.00;99.90;;;;;;5007770;28;20225;-82
2022/07/27 05:42:25;;;;;;;8.03;1.37;;;14.00;99.90;;;;;;5003840;28;20233;-84
2022/07/27 05:44:53;;;;;;;4.97;1.30;;;14.00;99.90;;;;;;4997557;28;20322;-81
2022/07/27 05:47:20;;;;;;;4.27;1.40;;;14.10;99.90;;;;;;5003597;28;20239;-81
2022/07/27 05:49:47;;;;;;;5.90;1.30;;;14.20;99.90;;;;;;5016770;28;20259;-81
2022/07/27 05:52:14;;;;;;;8.43;1.63;;;14.30;99.90;;;;;;5012393;28;20243;-81
2022/07/27 05:54:41;;;;;;;4.83;1.27;;;14.30;99.90;;;;;;5009811;28;20232;-81
2022/07/27 05:57:09;;;;;;;6.47;1.40;;;14.40;99.90;;;;;;5004264;28;20222;-82
2022/07/27 05:59:36;;;;;;;7.90;1.37;;;14.50;99.90;;;;;;5015053;28;20247;-81
2022/07/27 06:02:03;;;;;;;4.17;1.20;;;14.60;99.90;;;;;;5008075;28;20225;-82
2022/07/27 06:04:30;;;;;;;6.77;1.77;;;14.60;99.90;;;;;;4991789;28;20238;-82
2022/07/27 06:09:41;;;;;;;5.87;1.60;;;14.70;99.90;;;;;;5015935;28;20226;-82
2022/07/27 06:12:09;;;;;;;4.60;1.53;;;14.80;99.90;;;;;;5023507;28;20240;-82
2022/07/27 06:14:36;;;;;;;7.47;1.20;;;14.80;99.90;;;;;;5018170;28;20226;-82
2022/07/27 06:17:03;;;;;;;4.70;1.63;;;14.90;99.90;;;;;;5014269;28;20701;-81
2022/07/27 06:19:30;;;;;;;2.90;1.17;;;14.90;99.90;;;;;;5021387;28;20352;-82
2022/07/27 06:21:57;;;;;;;6.13;1.50;;;14.90;99.90;;;;;;5013998;28;20234;-81
2022/07/27 06:24:24;;;;;;;6.33;1.50;;;14.90;99.90;;;;;;5012451;28;20244;-81
2022/07/27 06:26:50;;;;;;;7.07;1.50;;;14.90;99.90;;;;;;5017189;28;20232;-81
2022/07/27 06:29:18;;;;;;;8.53;2.13;;;14.90;99.90;;;;;;5015244;28;20235;-82
2022/07/27 06:31:45;;;;;;;5.60;1.80;;;14.80;99.90;;;;;;5004380;28;20223;-83
2022/07/27 06:34:12;;;;;;;5.30;1.20;;;14.70;99.90;;;;;;5006995;28;20677;-83
2022/07/27 06:36:41;;;;;;;4.70;1.67;;;14.70;99.90;;;;;;5007523;28;20784;-82
2022/07/27 06:39:08;;;;;;;5.93;1.67;;;14.70;99.90;;;;;;5016482;28;20539;-81
2022/07/27 06:41:34;;;;;;;8.63;1.70;;;14.60;99.90;;;;;;5016405;28;20728;-82
2022/07/27 06:44:01;;;;;;;3.97;1.50;;;14.60;99.90;;;;;;5019531;28;20295;-83
2022/07/27 06:46:29;;;;;;;4.20;1.20;;;14.60;99.90;;;;;;5007281;28;20739;-82
2022/07/27 06:48:56;;;;;;;8.40;1.87;;;14.60;99.90;;;;;;5018519;28;20269;-82
2022/07/27 06:51:23;;;;;;;5.17;1.30;;;14.70;99.90;;;;;;5023311;28;20236;-82
2022/07/27 06:53:51;;;;;;;7.53;1.20;;;14.80;99.90;;;;;;5023380;28;20248;-82
2022/07/27 06:56:18;;;;;;;3.93;1.27;;;14.90;99.90;;;;;;5008371;28;20228;-82
2022/07/27 06:58:45;;;;;;;4.30;1.23;;;15.00;99.90;;;;;;5027658;28;20600;-83
2022/07/27 07:01:13;;;;;;;4.07;1.10;;;15.10;99.90;;;;;;5023998;28;20229;-82
2022/07/27 07:03:41;;;;;;;4.57;1.20;;;15.20;99.90;;;;;;5017198;28;20240;-82
2022/07/27 07:06:08;;;;;;;3.70;1.40;;;15.30;99.90;;;;;;5021418;28;20227;-83
2022/07/27 07:08:35;;;;;;;3.83;1.10;;;15.30;99.90;;;;;;5020282;28;20228;-83
2022/07/27 07:11:02;;;;;;;4.70;1.40;;;15.50;99.90;;;;;;5012818;28;20630;-83
2022/07/27 07:13:29;;;;;;;3.83;1.30;;;15.50;99.90;;;;;;4998633;28;20238;-83
2022/07/27 07:15:56;;;;;;;4.87;1.23;;;15.60;99.90;;;;;;5012805;28;20239;-82
2022/07/27 07:18:23;;;;;;;3.83;1.10;;;15.70;99.90;;;;;;5016844;28;20228;-83
2022/07/27 07:20:51;;;;;;;4.90;1.87;;;15.90;99.90;;;;;;5013349;28;20241;-82
2022/07/27 07:23:20;;;;;;;4.00;1.17;;;16.00;99.90;;;;;;5014737;28;20223;-83
2022/07/27 07:25:47;;;;;;;3.80;1.13;;;16.20;99.90;;;;;;5019590;28;20310;-82
2022/07/27 07:28:14;;;;;;;7.63;1.60;;;16.40;99.90;;;;;;5019234;28;20228;-83
2022/07/27 07:30:41;;;;;;;6.73;1.30;;;16.60;99.90;;;;;;5021592;28;20249;-82
2022/07/27 07:33:07;;;;;;;4.00;1.17;;;16.80;99.90;;;;;;5003800;28;20231;-83
2022/07/27 07:35:34;;;;;;;9.33;1.70;;;17.00;99.90;;;;;;5010563;28;20319;-83
2022/07/27 07:38:02;;;;;;;6.20;1.50;;;17.20;99.80;;;;;;5018922;28;20232;-82
2022/07/27 07:40:29;;;;;;;4.87;1.77;;;17.40;99.40;;;;;;5014921;28;20710;-82
2022/07/27 07:42:58;;;;;;;4.90;1.40;;;17.70;99.50;;;;;;5020284;28;20233;-82
2022/07/27 07:45:26;;;;;;;3.25;1.20;;;18.20;99.60;;;;;;5024060;28;20256;-82
2022/07/27 07:47:54;;;;;;;5.57;1.50;;;18.70;99.10;;;;;;5020138;28;20235;-82
2022/07/27 07:50:21;;;;;;;4.53;1.48;;;19.40;98.30;;;;;;5025124;28;20675;-82
2022/07/27 07:52:49;;;;;;;5.67;1.30;;;20.00;96.50;;;;;;5019968;28;20296;-83
2022/07/27 07:55:19;;;;;;;4.80;1.40;;;20.30;95.60;;;;;;5019464;28;20248;-82
2022/07/27 07:57:46;;;;;;;5.03;1.27;;;20.60;95.20;;;;;;5022786;28;20276;-82
2022/07/27 08:00:13;;;;;;;3.20;1.35;;;20.80;94.70;;;;;;5028023;28;20225;-82
2022/07/27 08:02:44;;;;;;;4.25;1.20;;;21.20;93.70;;;;;;5005522;28;20233;-83
2022/07/27 08:05:11;;;;;;;5.55;1.42;;;21.50;93.20;;;;;;5006234;28;20229;-84
2022/07/27 08:07:37;;;;;;;4.45;1.02;;;22.00;93.00;;;;;;5010273;28;20232;-82
2022/07/27 08:10:06;;;;;;;5.10;1.25;;;22.50;92.50;;;;;;5011671;28;20880;-82
2022/07/27 08:12:35;;;;;;;7.47;1.50;;;23.00;91.50;;;;;;5026301;28;20379;-82
2022/07/27 08:15:01;;;;;;;4.03;1.10;;;23.40;89.80;;;;;;5016636;28;20221;-84
2022/07/27 08:17:28;;;;;;;6.10;1.30;;;23.60;87.70;;;;;;5021831;28;20311;-82
2022/07/27 08:19:55;;;;;;;3.15;1.05;;;23.50;84.80;;;;;;5025565;28;20232;-83
2022/07/27 08:22:21;;;;;;;5.22;1.65;;;23.20;84.10;;;;;;5022052;28;20238;-83
2022/07/27 08:24:49;;;;;;;5.63;1.40;;;22.80;84.10;;;;;;5008526;28;20256;-83
2022/07/27 08:27:16;;;;;;;7.45;1.50;;;22.30;84.10;;;;;;5016127;28;20309;-82
2022/07/27 08:29:44;;;;;;;6.90;1.40;;;21.90;85.00;;;;;;5013027;28;20224;-83
2022/07/27 08:32:11;;;;;;;3.95;1.42;;;21.40;85.30;;;;;;5015117;28;20715;-84
2022/07/27 08:34:38;;;;;;;5.65;1.77;;;21.00;87.00;;;;;;5004116;28;20234;-82
2022/07/27 08:37:04;;;;;;;5.28;1.42;;;20.60;87.70;;;;;;5009165;28;20380;-83
2022/07/27 08:39:31;;;;;;;5.15;1.35;;;20.20;87.70;;;;;;5007677;28;20225;-83
2022/07/27 08:42:03;;;;;;;4.77;1.33;;;19.80;88.50;;;;;;5014762;28;20245;-83
2022/07/27 08:44:30;;;;;;;5.00;1.43;;;19.40;89.30;;;;;;5017174;28;20232;-83
2022/07/27 08:47:01;;;;;;;6.60;1.97;;;19.10;90.00;;;;;;5019945;28;20300;-82
2022/07/27 08:49:29;;;;;;;4.63;1.27;;;18.90;90.20;;;;;;5010624;28;20953;-83
2022/07/27 08:51:56;;;;;;;2.47;1.10;;;18.70;90.60;;;;;;5022438;28;20775;-82
2022/07/27 08:54:24;;;;;;;6.60;1.63;;;18.70;90.70;;;;;;5019554;28;20217;-82
2022/07/27 08:56:51;;;;;;;3.43;1.17;;;18.70;90.80;;;;;;5018983;28;20225;-84
2022/07/27 08:59:18;;;;;;;3.33;1.10;;;18.80;90.90;;;;;;5002240;28;20252;-83
2022/07/27 09:01:44;;;;;;;5.03;1.30;;;19.00;91.20;;;;;;5020998;28;20235;-83
2022/07/27 09:04:12;;;;;;;6.90;1.40;;;19.30;91.20;;;;;;5017289;28;20315;-83
2022/07/27 09:06:40;;;;;;;3.80;1.05;;;19.60;90.10;;;;;;5015357;28;20244;-82
2022/07/27 09:09:07;;;;;;;4.50;0.98;;;20.00;90.20;;;;;;5024420;28;20234;-82
2022/07/27 09:11:35;;;;;;;3.25;1.08;;;20.30;89.40;;;;;;5011213;28;20698;-83
2022/07/27 09:14:03;;;;;;;4.70;1.23;;;20.70;87.40;;;;;;5011417;28;20240;-82
2022/07/27 09:16:31;;;;;;;3.53;1.00;;;20.90;86.00;;;;;;5016725;28;20229;-82
2022/07/27 09:18:59;;;;;;;4.35;1.50;;;21.20;85.10;;;;;;5018788;28;20260;-83
2022/07/27 09:21:28;;;;;;;3.92;0.98;;;21.30;83.50;;;;;;5013024;28;20229;-82
2022/07/27 09:23:56;;;;;;;3.78;1.00;;;21.40;83.70;;;;;;5018833;28;20232;-82
2022/07/27 09:26:25;;;;;;;2.50;1.00;;;21.70;82.90;;;;;;5009556;28;20256;-82
2022/07/27 09:28:54;;;;;;;3.38;1.30;;;22.00;82.90;;;;;;5019983;28;20358;-82
2022/07/27 09:31:21;;;;;;;4.25;1.00;;;22.30;80.30;;;;;;5012875;28;20245;-82
2022/07/27 09:33:50;;;;;;;2.58;1.00;;;22.40;79.70;;;;;;5021232;28;20791;-83
2022/07/27 09:36:18;;;;;;;4.93;1.40;;;22.50;77.60;;;;;;5005361;28;20703;-83
2022/07/27 09:38:54;;;;;;;2.70;0.90;;;22.40;77.10;;;;;;5015095;28;20260;-82
2022/07/27 09:41:21;;;;;;;3.97;0.95;;;22.30;76.20;;;;;;5003621;28;20287;-82
2022/07/27 09:43:49;;;;;;;4.43;1.10;;;22.10;76.10;;;;;;5014708;28;20642;-82
2022/07/27 09:46:27;;;;;;;3.88;1.10;;;21.90;76.20;;;;;;5011654;28;20232;-83
2022/07/27 09:48:54;;;;;;;3.55;1.25;;;21.70;75.80;;;;;;5005558;28;20224;-82
2022/07/27 09:51:23;;;;;;;5.22;1.40;;;21.50;75.70;;;;;;5012980;28;20244;-83
2022/07/27 09:53:53;;;;;;;3.28;1.10;;;21.20;75.30;;;;;;5015631;28;20599;-83
2022/07/27 09:56:25;;;;;;;4.93;1.17;;;21.00;74.90;;;;;;5007404;28;20725;-82
2022/07/27 09:58:55;;;;;;;5.30;1.63;;;20.80;75.30;;;;;;5029918;28;20239;-83
2022/07/27 10:01:23;;;;;;;5.13;1.13;;;20.70;75.70;;;;;;5013001;28;20716;-82
2022/07/27 10:03:53;;;;;;;4.13;0.90;;;20.60;76.20;;;;;;5017786;28;20568;-82
2022/07/27 10:06:21;;;;;;;2.00;0.80;;;20.70;76.40;;;;;;5008780;28;20222;-82
2022/07/27 10:08:50;;;;;;;4.78;0.90;;;20.80;77.80;;;;;;5015607;28;20284;-82
2022/07/27 10:11:19;;;;;;;3.25;0.90;;;21.10;78.80;;;;;;5005085;28;20857;-82
2022/07/27 10:13:47;;;;;;;3.97;0.90;;;21.40;76.40;;;;;;5003931;28;20290;-82
2022/07/27 10:16:16;;;;;;;4.75;1.27;;;21.80;76.30;;;;;;4991955;28;20226;-83
2022/07/27 10:18:52;;;;;;;2.10;1.00;;;22.10;75.50;;;;;;5017110;28;21271;-82
2022/07/27 10:21:20;;;;;;;2.33;0.95;;;22.20;75.60;;;;;;5012374;28;20229;-83
2022/07/27 10:23:58;;;;;;;3.08;1.30;;;22.40;74.40;;;;;;5026965;28;20309;-82
2022/07/27 10:26:32;;;;;;;2.75;1.23;;;22.40;74.60;;;;;;5014111;28;20621;-82
2022/07/27 10:29:01;;;;;;;3.22;1.30;;;22.50;74.20;;;;;;5004747;28;20323;-87
2022/07/27 10:31:30;;;;;;;4.57;1.35;;;22.40;73.70;;;;;;4998942;28;20249;-88
2022/07/27 10:33:59;;;;;;;6.03;1.17;;;22.40;73.50;;;;;;5000460;28;20218;-80
2022/07/27 10:36:50;;;;;;;7.40;1.30;;;22.30;73.60;;;;;;5000250;28;20795;-85
2022/07/27 10:39:35;;;;;;;4.85;0.95;;;22.30;73.90;;;;;;5009183;28;20225;-85
2022/07/27 10:42:25;;;;;;;4.35;1.10;;;22.20;74.30;;;;;;5016342;28;20689;-85
2022/07/27 10:45:00;;;;;;;4.55;1.38;;;22.20;73.40;;;;;;5028838;23;20290;-83
2022/07/27 10:47:30;;;;;;;3.13;1.30;;;22.10;74.10;;;;;;5004798;28;20232;-78
2022/07/27 10:50:42;;;;;;;4.22;1.33;;;22.00;73.60;;;;;;5000827;28;20229;-78
2022/07/27 10:53:13;;;;;;;3.28;1.23;;;21.90;73.80;;;;;;5029203;23;20252;-78
2022/07/27 10:55:48;;;;;;;4.35;1.40;;;21.90;73.70;;;;;;5033416;22;20224;-79
2022/07/27 10:58:49;;;;;;;4.32;1.10;;;22.10;74.30;;;;;;5020096;28;20760;-79
2022/07/27 11:01:20;;;;;;;2.55;0.90;;;22.30;74.70;;;;;;5016485;22;20515;-79
2022/07/27 11:03:51;;;;;;;3.90;1.13;;;22.60;74.20;;;;;;5042953;23;20278;-81
2022/07/27 11:06:29;;;;;;;3.53;1.10;;;22.80;71.70;;;;;;5025012;28;20519;-83
2022/07/27 11:11:33;;;;;;;2.03;0.80;;;23.50;69.20;;;;;;5020279;28;20220;-79
2022/07/27 11:14:01;;;;;;;2.78;1.02;;;23.80;68.50;;;;;;5022602;22;20236;-80
2022/07/27 11:16:30;;;;;;;4.38;1.08;;;23.80;66.20;;;;;;5021489;22;20233;-79
2022/07/27 11:19:02;;;;;;;3.83;1.30;;;23.80;66.20;;;;;;5015187;28;20227;-79
2022/07/27 11:21:31;;;;;;;3.55;0.90;;;23.60;65.70;;;;;;5013371;28;20228;-79
2022/07/27 11:24:01;;;;;;;4.53;1.33;;;23.30;66.00;;;;;;5019164;28;20320;-81
2022/07/27 11:26:30;;;;;;;3.15;0.95;;;23.10;66.60;;;;;;4995971;28;20226;-78
2022/07/27 11:28:57;;;;;;;4.25;1.33;;;22.90;67.70;;;;;;5034034;23;20278;-81
2022/07/27 11:31:25;;;;;;;3.45;1.13;;;22.80;69.30;;;;;;5031873;23;20296;-81
2022/07/27 11:33:56;;;;;;;4.55;1.38;;;22.90;69.80;;;;;;5022561;28;20229;-79
2022/07/27 11:36:24;;;;;;;4.32;1.25;;;23.00;70.60;;;;;;5022278;23;20271;-79
2022/07/27 11:38:53;;;;;;;2.63;1.10;;;23.10;70.30;;;;;;5023019;28;20215;-82
2022/07/27 11:41:25;;;;;;;6.78;1.20;;;23.10;69.10;;;;;;5032382;23;20230;-83
2022/07/27 11:43:53;;;;;;;4.43;1.02;;;23.20;68.90;;;;;;5037118;23;20970;-82
2022/07/27 11:46:22;;;;;;;3.13;1.13;;;23.10;68.70;;;;;;5011258;28;20876;-79
2022/07/27 11:48:56;;;;;;;4.22;1.20;;;23.00;68.70;;;;;;5005205;28;20226;-81
2022/07/27 11:51:23;;;;;;;2.05;1.15;;;22.90;68.90;;;;;;5027733;23;20315;-80
2022/07/27 11:53:59;;;;;;;4.97;1.30;;;22.80;69.60;;;;;;5034053;28;20229;-83
2022/07/27 11:56:28;;;;;;;3.58;1.25;;;22.80;69.50;;;;;;5033406;28;20316;-80
2022/07/27 11:59:03;;;;;;;4.72;1.20;;;22.80;68.20;;;;;;5020356;28;20230;-83
2022/07/27 12:01:32;;;;;;;4.20;1.25;;;22.80;67.10;;;;;;5001733;23;20992;-78
2022/07/27 12:04:11;;;;;;;2.88;0.93;;;22.70;66.60;;;;;;5013778;23;20733;-81
2022/07/27 12:06:39;;;;;;;2.42;0.85;;;22.70;66.30;;;;;;5019396;23;20282;-78
2022/07/27 12:09:07;;;;;;;2.75;0.90;;;22.70;66.00;;;;;;5016870;28;20232;-79
2022/07/27 12:11:50;;;;;;;3.92;1.23;;;22.80;67.20;;;;;;5015403;28;20228;-79
2022/07/27 12:14:17;;;;;;;6.53;1.40;;;22.80;66.10;;;;;;5020566;23;20235;-79
2022/07/27 12:16:45;;;;;;;2.60;1.27;;;22.90;66.30;;;;;;5028577;28;20303;-82
2022/07/27 12:19:22;;;;;;;5.03;1.50;;;22.80;66.40;;;;;;5001540;23;20320;-79
2022/07/27 12:21:52;;;;;;;5.30;1.48;;;22.70;66.30;;;;;;5052127;28;20235;-83
2022/07/27 12:24:18;;;;;;;5.28;1.73;;;22.60;66.80;;;;;;5046994;28;20235;-82
2022/07/27 12:27:02;;;;;;;2.90;0.90;;;22.40;67.60;;;;;;5020947;28;20227;-80
2022/07/27 12:29:28;;;;;;;3.70;1.00;;;22.20;67.80;;;;;;5008668;28;20225;-83
2022/07/27 12:32:02;;;;;;;3.67;1.50;;;22.20;68.00;;;;;;5019030;23;20243;-82
2022/07/27 12:34:34;;;;;;;3.25;1.00;;;22.10;68.40;;;;;;5021218;28;20236;-79
2022/07/27 12:37:02;;;;;;;2.88;1.17;;;22.00;68.40;;;;;;5008150;28;20235;-79
2022/07/27 12:39:30;;;;;;;4.65;1.48;;;22.00;68.80;;;;;;5000750;28;20256;-82
2022/07/27 12:42:06;;;;;;;2.65;1.20;;;21.90;68.40;;;;;;5000260;28;20231;-82
2022/07/27 12:44:33;;;;;;;3.35;1.30;;;21.70;68.90;;;;;;5010232;28;20240;-82
2022/07/27 12:47:39;;;;;;;7.38;1.30;;;21.60;68.70;;;;;;5007248;28;20236;-81
2022/07/27 12:50:09;;;;;;;4.78;1.10;;;21.50;69.40;;;;;;5002577;28;20225;-80
2022/07/27 12:52:38;;;;;;;4.13;1.25;;;21.30;68.50;;;;;;5002813;23;20829;-79
2022/07/27 12:55:07;;;;;;;2.20;1.10;;;21.30;68.70;;;;;;5016498;23;20532;-78
2022/07/27 12:57:33;;;;;;;2.53;1.15;;;21.20;67.90;;;;;;5025867;23;20227;-83
2022/07/27 13:00:00;;;;;;;3.72;1.13;;;21.10;67.70;;;;;;5033940;28;20303;-79
2022/07/27 13:02:27;;;;;;;5.18;1.75;;;21.10;67.50;;;;;;5022608;22;20260;-81